Time;durP1;ratioP1;P1;durP2;ratioP2;P2;SDS_P1;SDS_P2;PMS_P1;PMS_P2;Temp;Humidity;BMP_temperature;BMP_pressure;BME280_temperature;BME280_humidity;BME280_pressure;Samples;Min_cycle;Max_cycle;Signal;HPM_P1;HPM_P2
2023/07/17 00:01:12;;;;;;;2.95;1.00;;;16.00;99.90;;;;;;5086407;28;20048;-74
2023/07/17 00:03:38;;;;;;;2.22;0.90;;;15.90;99.90;;;;;;5083443;28;20044;-74
2023/07/17 00:06:04;;;;;;;1.42;0.80;;;15.90;99.90;;;;;;5070637;28;20054;-75
2023/07/17 00:08:30;;;;;;;1.15;0.70;;;15.90;99.90;;;;;;5062261;28;20131;-74
2023/07/17 00:10:58;;;;;;;1.13;0.65;;;15.90;99.90;;;;;;5088447;28;20051;-75
2023/07/17 00:13:24;;;;;;;1.50;0.60;;;15.90;99.90;;;;;;5096589;28;20127;-75
2023/07/17 00:15:49;;;;;;;;;;;15.90;1.00;;;;;;5088260;28;20119;-74
2023/07/17 00:18:15;;;;;;;1.50;0.60;;;15.90;1.00;;;;;;5083568;28;20034;-74
2023/07/17 00:20:41;;;;;;;0.60;0.32;;;15.90;33.80;;;;;;5088298;28;20503;-74
2023/07/17 00:23:07;;;;;;;1.30;0.50;;;15.90;44.60;;;;;;5088960;28;20031;-74
2023/07/17 00:25:33;;;;;;;1.00;0.45;;;15.90;95.10;;;;;;5087385;28;20068;-74
2023/07/17 00:27:58;;;;;;;1.40;0.45;;;15.90;99.90;;;;;;5121391;27;20066;-74
2023/07/17 00:30:24;;;;;;;1.30;0.60;;;15.90;99.90;;;;;;5100620;28;20123;-74
2023/07/17 00:32:50;;;;;;;1.80;0.70;;;16.00;99.90;;;;;;5087102;28;20075;-75
2023/07/17 00:35:16;;;;;;;2.15;0.90;;;16.00;99.90;;;;;;5106312;28;20040;-74
2023/07/17 00:37:42;;;;;;;1.73;0.70;;;16.00;1.00;;;;;;5087101;28;20930;-74
2023/07/17 00:40:09;;;;;;;2.78;1.15;;;16.00;1.00;;;;;;5088321;28;20392;-74
2023/07/17 00:42:35;;;;;;;2.88;1.13;;;16.00;1.00;;;;;;5087749;28;20069;-74
2023/07/17 00:45:00;;;;;;;3.97;0.90;;;16.00;32.00;;;;;;5105068;28;20044;-75
2023/07/17 00:47:29;;;;;;;2.60;1.02;;;16.00;32.70;;;;;;5072278;28;20043;-74
2023/07/17 00:49:55;;;;;;;2.90;1.23;;;16.00;99.90;;;;;;5079099;28;20530;-74
2023/07/17 00:52:22;;;;;;;3.70;1.38;;;16.00;99.90;;;;;;5088652;28;20052;-75
2023/07/17 00:54:49;;;;;;;3.75;1.20;;;16.00;99.90;;;;;;5066464;28;20036;-74
2023/07/17 00:57:17;;;;;;;3.75;1.20;;;15.90;99.90;;;;;;5088473;28;20055;-74
2023/07/17 00:59:43;;;;;;;2.67;0.90;;;15.90;99.90;;;;;;5072888;28;20052;-74
2023/07/17 01:02:12;;;;;;;2.00;1.08;;;15.80;84.90;;;;;;5080039;28;20065;-74
2023/07/17 01:04:43;;;;;;;2.75;1.05;;;15.80;40.80;;;;;;5088321;28;20774;-75
2023/07/17 01:07:08;;;;;;;2.72;1.13;;;15.70;1.00;;;;;;5087822;28;20373;-75
2023/07/17 01:09:35;;;;;;;3.92;1.55;;;15.60;1.00;;;;;;5065030;28;20126;-73
2023/07/17 01:12:01;;;;;;;4.13;1.33;;;15.60;99.90;;;;;;5098050;28;20048;-74
2023/07/17 01:14:28;;;;;;;4.03;1.20;;;15.50;99.90;;;;;;5055630;28;20112;-73
2023/07/17 01:16:54;;;;;;;1.92;0.90;;;15.50;1.00;;;;;;5071432;28;20123;-74
2023/07/17 01:19:20;;;;;;;2.67;1.08;;;15.40;1.00;;;;;;5071061;28;20131;-74
2023/07/17 01:21:51;;;;;;;2.47;1.13;;;15.40;1.00;;;;;;5088225;28;20093;-74
2023/07/17 01:24:18;;;;;;;3.38;1.20;;;15.30;1.00;;;;;;5063612;28;20058;-74
2023/07/17 01:26:43;;;;;;;1.65;0.90;;;15.30;1.00;;;;;;5088042;28;20093;-74
2023/07/17 01:29:09;;;;;;;2.38;0.90;;;15.30;11.90;;;;;;5102237;28;20036;-74
2023/07/17 01:31:37;;;;;;;1.08;0.70;;;15.20;1.00;;;;;;5089565;28;20146;-74
2023/07/17 01:34:03;;;;;;;1.95;0.90;;;15.20;5.20;;;;;;5091915;28;20055;-74
2023/07/17 01:36:30;;;;;;;1.85;0.90;;;15.20;43.50;;;;;;5090782;28;20044;-73
2023/07/17 01:38:55;;;;;;;2.25;1.00;;;15.20;62.70;;;;;;5091518;28;20040;-74
2023/07/17 01:41:23;;;;;;;1.90;0.82;;;15.10;80.10;;;;;;5091856;28;20050;-74
2023/07/17 01:43:49;;;;;;;1.75;0.88;;;15.10;99.90;;;;;;5075532;28;20056;-74
2023/07/17 01:46:14;;;;;;;1.70;0.73;;;15.10;99.90;;;;;;5108206;28;20051;-74
2023/07/17 01:48:40;;;;;;;2.05;1.05;;;15.10;99.90;;;;;;5090936;28;20063;-74
2023/07/17 01:51:06;;;;;;;1.60;0.98;;;15.10;99.90;;;;;;5126534;27;20036;-74
2023/07/17 01:53:33;;;;;;;2.28;1.10;;;15.10;99.90;;;;;;5125132;27;20488;-74
2023/07/17 01:56:00;;;;;;;1.20;0.80;;;15.10;99.90;;;;;;5091258;28;20511;-75
2023/07/17 01:58:26;;;;;;;1.38;0.70;;;15.10;99.90;;;;;;5077011;28;20046;-74
2023/07/17 02:00:55;;;;;;;;;;;15.10;99.90;;;;;;5089162;28;20476;-74
2023/07/17 02:03:22;;;;;;;1.77;0.73;;;15.10;99.90;;;;;;5089930;28;19997;-74
2023/07/17 02:05:50;;;;;;;1.50;0.80;;;15.10;99.90;;;;;;5086938;28;20347;-74
2023/07/17 02:08:16;;;;;;;1.77;0.90;;;15.10;99.90;;;;;;5085694;28;20422;-74
2023/07/17 02:10:43;;;;;;;2.17;0.80;;;15.10;99.90;;;;;;5118786;27;20039;-75
2023/07/17 02:13:08;;;;;;;2.35;0.90;;;15.10;99.90;;;;;;5070167;28;20348;-74
2023/07/17 02:15:34;;;;;;;2.08;0.85;;;15.00;99.90;;;;;;5085919;28;20135;-75
2023/07/17 02:18:00;;;;;;;3.85;1.40;;;15.00;99.90;;;;;;5085117;28;20123;-75
2023/07/17 02:20:26;;;;;;;1.35;0.93;;;15.00;99.90;;;;;;5071063;28;20047;-75
2023/07/17 02:22:52;;;;;;;2.45;1.00;;;15.00;99.90;;;;;;5084020;28;20037;-74
2023/07/17 02:25:18;;;;;;;1.63;0.93;;;15.00;99.90;;;;;;5085164;28;20559;-75
2023/07/17 02:27:44;;;;;;;1.42;0.77;;;15.00;99.90;;;;;;5069075;28;20040;-74
2023/07/17 02:30:10;;;;;;;1.52;0.70;;;14.90;99.90;;;;;;5077504;28;20119;-74
2023/07/17 02:32:37;;;;;;;1.52;0.82;;;14.90;99.90;;;;;;5086962;28;20140;-75
2023/07/17 02:35:03;;;;;;;1.17;0.63;;;14.90;99.90;;;;;;5080983;28;20135;-75
2023/07/17 02:37:29;;;;;;;1.38;0.80;;;14.90;99.90;;;;;;5104092;28;20040;-74
2023/07/17 02:39:55;;;;;;;1.88;0.98;;;14.90;99.90;;;;;;5079289;28;20101;-74
2023/07/17 02:42:21;;;;;;;2.13;0.88;;;14.90;99.90;;;;;;5091058;28;20044;-75
2023/07/17 02:44:47;;;;;;;1.15;0.65;;;14.80;99.90;;;;;;5108141;28;20079;-75
2023/07/17 02:47:13;;;;;;;;;;;14.80;99.90;;;;;;5098616;28;20115;-74
2023/07/17 02:49:39;;;;;;;2.70;1.00;;;14.80;99.90;;;;;;5080457;28;20027;-75
2023/07/17 02:52:06;;;;;;;3.60;1.08;;;14.80;99.90;;;;;;5109911;27;20070;-75
2023/07/17 02:54:31;;;;;;;3.28;1.30;;;14.80;99.90;;;;;;5136222;27;20104;-75
2023/07/17 02:56:57;;;;;;;2.67;1.30;;;14.80;99.90;;;;;;5094202;28;20477;-75
2023/07/17 02:59:23;;;;;;;2.63;1.50;;;14.80;99.90;;;;;;5092337;28;20169;-75
2023/07/17 03:01:48;;;;;;;2.15;1.27;;;14.70;99.90;;;;;;5089674;28;20091;-74
2023/07/17 03:04:14;;;;;;;2.90;1.48;;;14.80;99.90;;;;;;5106860;28;20098;-75
2023/07/17 03:06:41;;;;;;;3.13;1.52;;;14.80;99.90;;;;;;5091956;28;20441;-75
2023/07/17 03:09:07;;;;;;;1.58;1.10;;;14.80;99.90;;;;;;5090917;28;20044;-75
2023/07/17 03:11:33;;;;;;;3.58;1.60;;;14.80;99.90;;;;;;5090314;28;20378;-75
2023/07/17 03:13:59;;;;;;;2.25;1.20;;;14.80;99.90;;;;;;5080445;28;20084;-75
2023/07/17 03:16:25;;;;;;;1.63;0.98;;;14.70;99.90;;;;;;5088805;28;20459;-75
2023/07/17 03:18:50;;;;;;;2.05;1.27;;;14.70;99.90;;;;;;5072836;28;20048;-75
2023/07/17 03:21:16;;;;;;;3.80;1.67;;;14.70;99.90;;;;;;5089559;28;20568;-75
2023/07/17 03:23:42;;;;;;;2.08;1.33;;;14.70;99.90;;;;;;5087906;28;20135;-75
2023/07/17 03:26:07;;;;;;;2.83;1.45;;;14.70;99.90;;;;;;5086410;28;20777;-75
2023/07/17 03:28:34;;;;;;;3.00;1.45;;;14.70;99.90;;;;;;5084829;28;20499;-75
2023/07/17 03:31:00;;;;;;;2.40;1.55;;;14.70;99.90;;;;;;5088093;28;20032;-75
2023/07/17 03:33:26;;;;;;;2.97;1.52;;;14.70;99.90;;;;;;5121619;27;20460;-75
2023/07/17 03:35:51;;;;;;;3.08;1.20;;;14.70;99.90;;;;;;5114266;27;20115;-75
2023/07/17 03:38:17;;;;;;;3.97;1.30;;;14.70;99.90;;;;;;5071875;28;20495;-75
2023/07/17 03:40:43;;;;;;;2.60;1.50;;;14.70;99.90;;;;;;5086516;28;20051;-75
2023/07/17 03:43:09;;;;;;;3.17;1.38;;;14.70;99.90;;;;;;5104967;28;20080;-75
2023/07/17 03:45:34;;;;;;;2.67;1.40;;;14.70;99.90;;;;;;5089425;28;20032;-75
2023/07/17 03:48:01;;;;;;;3.17;1.50;;;14.70;99.90;;;;;;5071801;28;20089;-75
2023/07/17 03:50:27;;;;;;;2.35;1.25;;;14.70;99.90;;;;;;5071454;28;20044;-75
2023/07/17 03:52:52;;;;;;;3.90;1.40;;;14.70;99.90;;;;;;5072317;28;20058;-74
2023/07/17 03:55:18;;;;;;;3.15;1.20;;;14.70;99.90;;;;;;5053983;28;20315;-74
2023/07/17 03:57:44;;;;;;;2.22;1.08;;;14.70;99.90;;;;;;5072192;28;20135;-73
2023/07/17 04:00:13;;;;;;;3.17;1.15;;;14.70;99.90;;;;;;5087992;28;20456;-73
2023/07/17 04:02:42;;;;;;;2.95;1.50;;;14.70;99.90;;;;;;5082402;28;20056;-74
2023/07/17 04:05:08;;;;;;;3.17;1.30;;;14.70;99.90;;;;;;5085917;28;20040;-73
2023/07/17 04:07:34;;;;;;;2.88;1.50;;;14.70;99.90;;;;;;5084733;28;20134;-73
2023/07/17 04:10:00;;;;;;;2.60;1.40;;;14.70;99.90;;;;;;5086790;28;20552;-74
2023/07/17 04:12:26;;;;;;;2.45;0.93;;;14.70;99.90;;;;;;5067838;28;20131;-74
2023/07/17 04:14:51;;;;;;;1.95;1.15;;;14.60;99.90;;;;;;5069192;28;20044;-73
2023/07/17 04:17:17;;;;;;;1.80;1.10;;;14.60;99.90;;;;;;5088219;28;20087;-73
2023/07/17 04:19:43;;;;;;;1.75;1.00;;;14.60;99.90;;;;;;5051461;28;20067;-73
2023/07/17 04:22:09;;;;;;;2.95;1.00;;;14.60;99.90;;;;;;5082633;28;20048;-74
2023/07/17 04:24:35;;;;;;;2.85;0.90;;;14.60;99.90;;;;;;5088274;28;20039;-75
2023/07/17 04:27:00;;;;;;;2.17;0.98;;;14.60;99.90;;;;;;5076453;28;20032;-75
2023/07/17 04:29:26;;;;;;;3.28;1.23;;;14.60;99.90;;;;;;5088208;28;20093;-75
2023/07/17 04:31:52;;;;;;;1.77;1.13;;;14.60;99.90;;;;;;5084777;28;20052;-75
2023/07/17 04:34:18;;;;;;;1.52;1.00;;;14.60;99.90;;;;;;5086810;28;20056;-75
2023/07/17 04:36:44;;;;;;;1.73;0.82;;;14.60;99.90;;;;;;5087362;28;20044;-75
2023/07/17 04:39:10;;;;;;;2.70;1.17;;;14.60;99.90;;;;;;5087849;28;20370;-75
2023/07/17 04:41:35;;;;;;;3.45;1.40;;;14.70;99.90;;;;;;5085187;28;20493;-75
2023/07/17 04:44:01;;;;;;;2.90;1.17;;;14.70;99.90;;;;;;5075457;28;20126;-75
2023/07/17 04:46:27;;;;;;;2.75;1.20;;;14.80;99.90;;;;;;5076256;28;20036;-75
2023/07/17 04:48:53;;;;;;;2.65;1.30;;;14.80;99.90;;;;;;5120910;28;20036;-75
2023/07/17 04:51:20;;;;;;;;;;;14.80;99.90;;;;;;5088131;28;20048;-75
2023/07/17 04:53:46;;;;;;;3.40;1.38;;;14.80;99.90;;;;;;5088611;28;19924;-75
2023/07/17 04:56:12;;;;;;;2.63;1.15;;;14.90;99.90;;;;;;5086514;28;20043;-75
2023/07/17 04:58:37;;;;;;;2.83;1.13;;;14.90;99.90;;;;;;5087872;28;20093;-75
2023/07/17 05:01:06;;;;;;;2.25;1.15;;;14.90;99.90;;;;;;5093207;28;20065;-75
2023/07/17 05:03:32;;;;;;;3.55;1.30;;;15.00;99.90;;;;;;5088753;28;20177;-75
2023/07/17 05:05:58;;;;;;;3.80;1.38;;;15.10;99.90;;;;;;5091772;28;20043;-75
2023/07/17 05:08:25;;;;;;;5.65;1.85;;;15.00;99.90;;;;;;5071925;28;20405;-74
2023/07/17 05:10:59;;;;;;;3.35;1.40;;;15.10;99.90;;;;;;5100098;28;20090;-75
2023/07/17 05:13:26;;;;;;;2.95;1.30;;;15.20;99.90;;;;;;5071091;28;20070;-75
2023/07/17 05:15:52;;;;;;;3.63;1.27;;;15.20;99.90;;;;;;5088659;28;20119;-75
2023/07/17 05:18:18;;;;;;;5.00;1.60;;;15.30;99.90;;;;;;5059923;28;20195;-75
2023/07/17 05:20:44;;;;;;;;;;;15.30;99.90;;;;;;5093217;28;20466;-75
2023/07/17 05:23:11;;;;;;;2.57;1.23;;;15.40;99.90;;;;;;5090939;28;20241;-75
2023/07/17 05:25:37;;;;;;;4.70;1.88;;;15.40;99.90;;;;;;5091961;28;20036;-75
2023/07/17 05:28:04;;;;;;;4.00;1.65;;;15.50;99.90;;;;;;5095064;28;20036;-75
2023/07/17 05:30:32;;;;;;;4.40;2.00;;;15.50;99.90;;;;;;5112673;27;20048;-75
2023/07/17 05:32:58;;;;;;;3.15;1.52;;;15.50;99.90;;;;;;5072272;28;20044;-75
2023/07/17 05:35:24;;;;;;;4.78;1.95;;;15.50;99.90;;;;;;5103344;28;20067;-75
2023/07/17 05:37:50;;;;;;;3.00;1.60;;;15.60;99.90;;;;;;5084245;28;20136;-75
2023/07/17 05:40:16;;;;;;;3.78;1.50;;;15.60;99.90;;;;;;5097469;28;20109;-75
2023/07/17 05:42:42;;;;;;;;;;;15.70;99.90;;;;;;5092346;28;20055;-75
2023/07/17 05:45:08;;;;;;;5.03;1.65;;;15.80;99.90;;;;;;5090284;28;19916;-75
2023/07/17 05:47:34;;;;;;;5.35;1.80;;;15.90;99.90;;;;;;5074879;28;20463;-74
2023/07/17 05:50:00;;;;;;;3.15;1.52;;;16.00;99.90;;;;;;5104876;28;20040;-74
2023/07/17 05:52:25;;;;;;;4.60;1.80;;;16.10;99.90;;;;;;5089377;28;20474;-74
2023/07/17 05:54:51;;;;;;;4.70;1.77;;;16.20;99.90;;;;;;5106569;27;20546;-74
2023/07/17 05:57:17;;;;;;;4.63;2.05;;;16.30;99.90;;;;;;5065260;28;20373;-74
2023/07/17 05:59:43;;;;;;;4.85;2.17;;;16.30;99.90;;;;;;5090470;28;20117;-74
2023/07/17 06:02:08;;;;;;;5.72;2.30;;;16.30;99.90;;;;;;5085053;28;20040;-74
2023/07/17 06:04:34;;;;;;;3.05;1.67;;;16.40;99.90;;;;;;5064952;28;20123;-74
2023/07/17 06:07:00;;;;;;;5.68;2.05;;;16.40;99.90;;;;;;5089909;28;20048;-74
2023/07/17 06:09:25;;;;;;;5.72;2.05;;;16.50;99.90;;;;;;5070572;28;20548;-74
2023/07/17 06:11:51;;;;;;;4.00;2.00;;;16.60;99.90;;;;;;5114865;27;20043;-75
2023/07/17 06:14:18;;;;;;;6.43;2.30;;;16.60;70.40;;;;;;5083297;28;20066;-75
2023/07/17 06:16:44;;;;;;;5.25;1.95;;;16.70;1.00;;;;;;5074507;28;20051;-75
2023/07/17 06:19:09;;;;;;;7.43;2.42;;;16.80;1.00;;;;;;5074663;28;20044;-74
2023/07/17 06:21:35;;;;;;;5.88;2.40;;;16.90;1.00;;;;;;5124670;27;20059;-75
2023/07/17 06:24:01;;;;;;;4.47;2.45;;;17.00;1.00;;;;;;5055541;28;20039;-75
2023/07/17 06:26:26;;;;;;;7.00;2.65;;;16.90;99.90;;;;;;5073121;28;20067;-74
2023/07/17 06:28:52;;;;;;;5.32;2.40;;;17.00;99.90;;;;;;5074014;28;20114;-74
2023/07/17 06:31:18;;;;;;;6.63;2.80;;;17.20;99.90;;;;;;5124702;27;20372;-74
2023/07/17 06:33:44;;;;;;;6.85;3.00;;;17.20;99.90;;;;;;5057864;28;20075;-74
2023/07/17 06:36:09;;;;;;;8.43;3.10;;;17.30;98.90;;;;;;5070605;28;20515;-74
2023/07/17 06:38:38;;;;;;;6.38;2.80;;;17.30;1.00;;;;;;5084209;28;20048;-74
2023/07/17 06:41:04;;;;;;;8.70;3.10;;;17.30;1.00;;;;;;5081120;28;20054;-74
2023/07/17 06:43:30;;;;;;;4.97;2.80;;;17.40;1.00;;;;;;5090266;28;20075;-74
2023/07/17 06:45:56;;;;;;;8.05;3.08;;;17.50;1.00;;;;;;5090835;28;20078;-74
2023/07/17 06:48:21;;;;;;;7.10;3.15;;;17.60;99.90;;;;;;5090285;28;20488;-75
2023/07/17 06:50:47;;;;;;;7.47;2.75;;;17.60;99.90;;;;;;5090280;28;20044;-75
2023/07/17 06:53:13;;;;;;;7.10;3.03;;;17.70;99.90;;;;;;5124357;27;20043;-75
2023/07/17 06:55:39;;;;;;;6.65;2.67;;;17.70;99.90;;;;;;5124316;27;20043;-75
2023/07/17 06:58:05;;;;;;;;;;;17.70;99.90;;;;;;5124885;27;20043;-75
2023/07/17 07:00:31;;;;;;;5.37;2.63;;;17.70;80.80;;;;;;5107386;28;19939;-75
2023/07/17 07:02:57;;;;;;;7.53;3.00;;;17.80;99.90;;;;;;5090002;28;20504;-75
2023/07/17 07:05:22;;;;;;;7.50;2.90;;;17.70;99.90;;;;;;5106997;28;20044;-75
2023/07/17 07:07:48;;;;;;;7.18;3.13;;;17.60;99.90;;;;;;5073508;28;20122;-75
2023/07/17 07:10:14;;;;;;;;;;;17.60;99.90;;;;;;5090376;28;20430;-75
2023/07/17 07:12:39;;;;;;;5.95;2.70;;;17.50;1.00;;;;;;5089775;28;19916;-75
2023/07/17 07:15:06;;;;;;;5.47;2.72;;;17.30;60.50;;;;;;5073003;28;20044;-75
2023/07/17 07:17:32;;;;;;;5.28;2.30;;;17.30;99.90;;;;;;5088092;28;20052;-75
2023/07/17 07:19:58;;;;;;;6.97;2.92;;;17.30;99.90;;;;;;5090068;28;20044;-75
2023/07/17 07:22:24;;;;;;;7.55;2.90;;;17.20;99.90;;;;;;5089533;28;20040;-75
2023/07/17 07:24:49;;;;;;;7.15;2.80;;;17.10;83.20;;;;;;5089901;28;20044;-75
2023/07/17 07:27:15;;;;;;;5.60;3.08;;;16.90;99.90;;;;;;5071931;28;20050;-75
2023/07/17 07:29:41;;;;;;;5.65;2.40;;;16.70;99.90;;;;;;5089139;28;20044;-75
2023/07/17 07:32:07;;;;;;;5.15;2.40;;;16.50;99.90;;;;;;5089601;28;20039;-75
2023/07/17 07:34:32;;;;;;;5.70;2.13;;;16.30;16.80;;;;;;5089270;28;20067;-74
2023/07/17 07:36:58;;;;;;;4.15;2.20;;;16.20;99.90;;;;;;5069136;28;20136;-74
2023/07/17 07:39:24;;;;;;;6.10;2.55;;;16.10;99.90;;;;;;5105041;27;20047;-74
2023/07/17 07:41:50;;;;;;;4.43;2.28;;;16.00;99.90;;;;;;5089221;28;20129;-73
2023/07/17 07:44:15;;;;;;;4.85;2.08;;;16.00;99.90;;;;;;5072405;28;20130;-73
2023/07/17 07:46:41;;;;;;;7.68;2.75;;;16.00;99.90;;;;;;5089465;28;20098;-72
2023/07/17 07:49:07;;;;;;;6.95;2.80;;;16.10;99.90;;;;;;5072703;28;20044;-73
2023/07/17 07:51:32;;;;;;;5.07;2.10;;;16.30;99.90;;;;;;5089280;28;20385;-73
2023/07/17 07:53:58;;;;;;;5.55;2.20;;;16.50;99.90;;;;;;5067779;28;20082;-73
2023/07/17 07:56:24;;;;;;;4.28;2.30;;;16.80;99.90;;;;;;5096599;28;20086;-73
2023/07/17 07:58:50;;;;;;;5.85;2.55;;;17.00;99.90;;;;;;5105988;28;20044;-72
2023/07/17 08:01:15;;;;;;;6.00;2.63;;;17.20;90.40;;;;;;5089620;28;20099;-72
2023/07/17 08:03:41;;;;;;;5.80;2.67;;;17.50;97.80;;;;;;5089577;28;20048;-73
2023/07/17 08:06:07;;;;;;;9.52;3.15;;;17.60;41.00;;;;;;5092996;28;20036;-73
2023/07/17 08:08:33;;;;;;;7.97;3.30;;;17.70;1.00;;;;;;5096746;28;20071;-73
2023/07/17 08:10:59;;;;;;;;;;;17.70;99.90;;;;;;5079787;28;20380;-74
2023/07/17 08:13:24;;;;;;;7.22;3.35;;;17.70;99.90;;;;;;5088127;28;20245;-74
2023/07/17 08:15:50;;;;;;;8.05;3.05;;;18.00;1.00;;;;;;5123067;27;20050;-73
2023/07/17 08:18:16;;;;;;;6.65;3.15;;;18.10;99.90;;;;;;5087549;28;20083;-73
2023/07/17 08:20:42;;;;;;;7.05;2.83;;;18.10;99.90;;;;;;5088717;28;20044;-74
2023/07/17 08:23:08;;;;;;;;;;;18.20;99.90;;;;;;5089407;28;20515;-75
2023/07/17 08:25:34;;;;;;;5.97;2.78;;;18.30;99.90;;;;;;5088551;28;19920;-75
2023/07/17 08:28:00;;;;;;;5.68;2.53;;;18.40;1.00;;;;;;5088917;28;20047;-75
2023/07/17 08:30:25;;;;;;;6.28;2.60;;;18.50;1.00;;;;;;5090151;28;20039;-75
2023/07/17 08:32:51;;;;;;;4.93;2.20;;;18.40;1.00;;;;;;5088876;28;20063;-75
2023/07/17 08:35:17;;;;;;;;;;;18.60;68.40;;;;;;5069304;28;20465;-75
2023/07/17 08:37:42;;;;;;;3.88;2.10;;;18.80;99.90;;;;;;5084506;28;19916;-75
2023/07/17 08:40:11;;;;;;;;;;;19.00;99.90;;;;;;5095262;28;20396;-75
2023/07/17 08:42:38;;;;;;;7.63;2.97;;;19.20;99.90;;;;;;5117803;27;20403;-76
2023/07/17 08:45:04;;;;;;;7.32;2.65;;;19.00;72.10;;;;;;5122480;27;20060;-75
2023/07/17 08:47:31;;;;;;;4.70;2.45;;;18.80;99.90;;;;;;5093091;28;20040;-75
2023/07/17 08:49:58;;;;;;;6.10;2.63;;;18.60;54.60;;;;;;5092873;28;20040;-75
2023/07/17 08:52:27;;;;;;;6.47;2.60;;;18.40;99.90;;;;;;5092837;28;20501;-75
2023/07/17 08:54:53;;;;;;;5.38;2.65;;;18.40;99.90;;;;;;5093010;28;20058;-75
2023/07/17 08:57:18;;;;;;;;;;;18.40;99.90;;;;;;5093541;28;20048;-75
2023/07/17 08:59:45;;;;;;;5.00;2.20;;;18.50;99.90;;;;;;5109979;28;19920;-75
2023/07/17 09:02:11;;;;;;;8.90;2.67;;;18.60;99.90;;;;;;5111645;28;20036;-75
2023/07/17 09:04:36;;;;;;;;;;;18.90;99.90;;;;;;5084822;28;20150;-75
2023/07/17 09:07:03;;;;;;;5.38;2.08;;;19.10;99.90;;;;;;5118120;28;19915;-75
2023/07/17 09:09:29;;;;;;;5.43;2.08;;;19.40;50.00;;;;;;5080151;28;20090;-76
2023/07/17 09:12:11;;;;;;;;;;;19.30;99.90;;;;;;5077039;28;20054;-75
2023/07/17 09:14:37;;;;;;;5.47;2.13;;;19.30;99.90;;;;;;5080602;28;19978;-76
2023/07/17 09:17:07;;;;;;;3.97;2.00;;;19.10;1.00;;;;;;5093986;28;20040;-76
2023/07/17 09:19:34;;;;;;;4.75;2.22;;;19.20;1.00;;;;;;5094332;28;20036;-76
2023/07/17 09:22:02;;;;;;;6.53;1.83;;;19.00;1.00;;;;;;5094576;28;20052;-75
2023/07/17 09:24:28;;;;;;;6.45;2.42;;;19.00;1.00;;;;;;5110815;28;20036;-75
2023/07/17 09:26:57;;;;;;;;;;;19.00;17.20;;;;;;5113607;28;20042;-76
2023/07/17 09:29:24;;;;;;;4.32;1.88;;;19.10;43.80;;;;;;5109671;28;19924;-75
2023/07/17 09:31:50;;;;;;;5.32;1.92;;;18.80;1.00;;;;;;5104863;28;20043;-75
2023/07/17 09:34:16;;;;;;;;;;;18.70;10.40;;;;;;5092904;28;20094;-75
2023/07/17 09:36:42;;;;;;;4.20;2.00;;;18.60;1.00;;;;;;5092894;28;19967;-75
2023/07/17 09:39:10;;;;;;;3.97;1.77;;;19.00;1.00;;;;;;5092228;28;20480;-75
2023/07/17 09:41:35;;;;;;;3.10;1.70;;;19.40;1.00;;;;;;5092157;28;20055;-76
2023/07/17 09:44:05;;;;;;;;;;;19.40;99.90;;;;;;5092820;28;20036;-76
2023/07/17 09:46:36;;;;;;;3.92;1.60;;;19.60;99.90;;;;;;5109137;28;19916;-76
2023/07/17 09:49:09;;;;;;;3.05;1.42;;;19.50;99.90;;;;;;5091273;28;20036;-76
2023/07/17 09:51:36;;;;;;;8.05;2.28;;;19.70;99.90;;;;;;5076301;28;20052;-76
2023/07/17 09:54:05;;;;;;;2.97;1.50;;;19.60;99.90;;;;;;5093090;28;20042;-76
2023/07/17 09:56:32;;;;;;;5.47;1.85;;;19.90;99.90;;;;;;5092177;28;20115;-75
2023/07/17 09:59:12;;;;;;;4.45;1.60;;;20.00;99.90;;;;;;5077634;28;20544;-75
2023/07/17 10:01:45;;;;;;;3.92;1.60;;;20.00;99.90;;;;;;5091513;28;20039;-75
2023/07/17 10:04:13;;;;;;;3.85;1.75;;;19.80;99.90;;;;;;5091803;28;20036;-75
2023/07/17 10:06:42;;;;;;;4.30;1.50;;;19.80;99.90;;;;;;5091773;28;20460;-73
2023/07/17 10:09:11;;;;;;;6.55;1.40;;;20.00;99.90;;;;;;5091712;28;20099;-73
2023/07/17 10:11:37;;;;;;;5.97;1.80;;;20.00;99.90;;;;;;5091232;28;20052;-73
2023/07/17 10:14:03;;;;;;;;;;;19.70;99.90;;;;;;5108715;28;20089;-73
2023/07/17 10:16:29;;;;;;;6.50;1.75;;;19.50;99.90;;;;;;5091438;28;19916;-73
2023/07/17 10:18:55;;;;;;;;;;;19.30;99.90;;;;;;5125764;27;20474;-73
2023/07/17 10:21:22;;;;;;;4.47;1.58;;;19.40;99.90;;;;;;5092429;28;19969;-73
2023/07/17 10:23:50;;;;;;;4.38;1.52;;;19.30;99.90;;;;;;5091362;28;20074;-72
2023/07/17 10:26:19;;;;;;;2.88;1.50;;;19.30;1.00;;;;;;5091101;28;20480;-73
2023/07/17 10:28:50;;;;;;;3.72;1.55;;;19.20;1.00;;;;;;5091239;28;20048;-73
2023/07/17 10:31:23;;;;;;;7.47;2.08;;;19.10;1.00;;;;;;5090758;28;20072;-74
2023/07/17 10:33:58;;;;;;;7.53;1.95;;;19.20;99.90;;;;;;5090862;28;20405;-73
2023/07/17 10:36:42;;;;;;;4.50;1.80;;;19.30;99.90;;;;;;5091026;28;20039;-73
2023/07/17 10:39:08;;;;;;;4.93;1.75;;;19.50;99.90;;;;;;5074217;28;20124;-73
2023/07/17 10:41:37;;;;;;;4.20;1.38;;;19.50;99.90;;;;;;5073544;28;20497;-74
2023/07/17 10:44:06;;;;;;;3.67;1.30;;;19.60;99.90;;;;;;5124826;27;20036;-74
2023/07/17 10:46:35;;;;;;;5.32;1.90;;;19.60;99.90;;;;;;5090665;28;20501;-73
2023/07/17 10:49:08;;;;;;;3.45;1.42;;;19.70;99.90;;;;;;5090366;28;20109;-74
2023/07/17 10:51:42;;;;;;;3.10;1.38;;;19.60;99.90;;;;;;5090452;28;20039;-74
2023/07/17 10:54:07;;;;;;;4.30;1.85;;;19.60;99.90;;;;;;5090290;28;20153;-74
2023/07/17 10:56:33;;;;;;;;;;;19.50;99.90;;;;;;5091200;28;20162;-74
2023/07/17 10:58:59;;;;;;;5.35;1.70;;;19.50;99.90;;;;;;5090349;28;19919;-74
2023/07/17 11:01:25;;;;;;;;;;;19.70;99.90;;;;;;5089669;28;20127;-74
2023/07/17 11:03:53;;;;;;;5.63;1.80;;;20.10;99.90;;;;;;5090088;28;19920;-74
2023/07/17 11:06:20;;;;;;;3.22;1.55;;;20.20;99.90;;;;;;5073497;28;20970;-73
2023/07/17 11:08:49;;;;;;;3.83;1.75;;;20.10;99.90;;;;;;5090075;28;20070;-73
2023/07/17 11:11:16;;;;;;;2.95;1.48;;;20.00;99.90;;;;;;5091520;28;20606;-74
2023/07/17 11:13:45;;;;;;;3.58;1.48;;;20.00;99.90;;;;;;5073403;28;20048;-74
2023/07/17 11:16:12;;;;;;;3.15;1.60;;;20.10;99.90;;;;;;5089989;28;20114;-74
2023/07/17 11:18:48;;;;;;;3.75;1.42;;;20.40;99.90;;;;;;5090324;28;20063;-74
2023/07/17 11:21:15;;;;;;;;;;;21.00;99.90;;;;;;5073436;28;20493;-73
2023/07/17 11:24:01;;;;;;;3.90;1.60;;;21.00;13.30;;;;;;5090250;28;20006;-73
2023/07/17 11:26:29;;;;;;;3.45;1.60;;;20.80;29.20;;;;;;5089724;28;20047;-74
2023/07/17 11:28:57;;;;;;;2.25;1.42;;;20.70;64.40;;;;;;5069748;28;20560;-73
2023/07/17 11:31:34;;;;;;;3.10;1.67;;;21.10;93.90;;;;;;5121937;27;20118;-74
2023/07/17 11:34:05;;;;;;;2.40;1.50;;;21.40;59.30;;;;;;5089600;28;20127;-74
2023/07/17 11:36:47;;;;;;;4.53;1.60;;;21.70;62.70;;;;;;5072760;28;20047;-75
2023/07/17 11:39:21;;;;;;;5.63;1.50;;;21.50;21.80;;;;;;5089638;28;20610;-76
2023/07/17 11:41:49;;;;;;;3.00;1.45;;;21.10;34.60;;;;;;5105432;28;20040;-76
2023/07/17 11:44:36;;;;;;;3.97;1.65;;;20.90;13.40;;;;;;5089662;28;20043;-76
2023/07/17 11:47:04;;;;;;;3.20;1.30;;;20.90;32.80;;;;;;5072208;28;20058;-75
2023/07/17 11:49:32;;;;;;;3.30;1.30;;;20.70;4.00;;;;;;5069280;28;20044;-75
2023/07/17 11:51:58;;;;;;;3.38;1.50;;;20.60;38.70;;;;;;5119756;27;20108;-76
2023/07/17 11:54:44;;;;;;;4.82;1.80;;;20.90;58.00;;;;;;5089450;28;20463;-76
2023/07/17 11:57:10;;;;;;;3.67;1.47;;;20.90;47.60;;;;;;5089129;28;20457;-76
2023/07/17 11:59:36;;;;;;;2.00;1.15;;;21.10;81.10;;;;;;5089623;28;20496;-76
2023/07/17 12:02:02;;;;;;;2.95;1.25;;;21.30;95.80;;;;;;5123327;27;20067;-76
2023/07/17 12:04:34;;;;;;;3.42;1.38;;;21.90;29.10;;;;;;5072654;28;20193;-75
2023/07/17 12:07:01;;;;;;;4.25;1.55;;;22.30;1.00;;;;;;5090857;28;20071;-75
2023/07/17 12:09:27;;;;;;;2.97;1.80;;;21.90;1.00;;;;;;5088650;28;20044;-75
2023/07/17 12:11:53;;;;;;;3.90;1.48;;;21.50;1.00;;;;;;5089100;28;20048;-75
2023/07/17 12:14:19;;;;;;;3.78;1.60;;;21.20;87.50;;;;;;5088760;28;20044;-75
2023/07/17 12:16:45;;;;;;;3.80;1.55;;;20.20;99.90;;;;;;5089570;28;20143;-74
2023/07/17 12:19:12;;;;;;;3.50;1.40;;;19.30;99.90;;;;;;5088987;28;20047;-75
2023/07/17 12:21:37;;;;;;;4.68;1.80;;;19.40;99.90;;;;;;5090295;28;20048;-75
2023/07/17 12:24:04;;;;;;;3.85;1.50;;;19.30;99.90;;;;;;5088757;28;20055;-72
2023/07/17 12:26:30;;;;;;;4.82;1.70;;;19.60;1.00;;;;;;5088867;28;20119;-72
2023/07/17 12:28:56;;;;;;;4.65;1.73;;;19.60;99.90;;;;;;5088862;28;20043;-73
2023/07/17 12:31:21;;;;;;;;;;;20.10;99.90;;;;;;5089195;28;20036;-72
2023/07/17 12:33:48;;;;;;;4.85;1.90;;;20.30;1.00;;;;;;5088807;28;19924;-72
2023/07/17 12:36:14;;;;;;;;;;;20.80;99.90;;;;;;5123495;28;20082;-73
2023/07/17 12:38:40;;;;;;;5.88;1.73;;;21.20;1.00;;;;;;5089082;28;19923;-72
2023/07/17 12:41:05;;;;;;;;;;;21.40;99.90;;;;;;5106029;28;20488;-73
2023/07/17 12:43:31;;;;;;;4.18;1.73;;;21.10;99.90;;;;;;5071974;28;19967;-73
2023/07/17 12:45:57;;;;;;;;;;;20.50;99.90;;;;;;5072611;28;20044;-72
2023/07/17 12:48:22;;;;;;;3.13;1.65;;;20.10;99.90;;;;;;5105566;28;19966;-73
2023/07/17 12:50:48;;;;;;;3.63;1.70;;;20.30;99.90;;;;;;5105925;28;20044;-73
2023/07/17 12:53:13;;;;;;;;;;;20.80;99.90;;;;;;5089184;28;20182;-73